Time;durP1;ratioP1;P1;durP2;ratioP2;P2;SDS_P1;SDS_P2;PMS_P1;PMS_P2;Temp;Humidity;BMP_temperature;BMP_pressure;BME280_temperature;BME280_humidity;BME280_pressure;Samples;Min_cycle;Max_cycle;Signal;HPM_P1;HPM_P2
2021/12/01 00:01:57;;;;;;;7.97;3.70;;;;;;;8.95;100.00;100073.88;5053403;28;20496;-66
2021/12/01 00:04:22;;;;;;;4.57;2.60;;;;;;;8.94;100.00;100073.06;5051920;28;20032;-66
2021/12/01 00:06:47;;;;;;;4.22;2.92;;;;;;;8.91;100.00;100064.69;5052498;28;20056;-66
2021/12/01 00:09:13;;;;;;;3.95;2.70;;;;;;;8.95;100.00;100060.56;5052570;28;20048;-67
2021/12/01 00:11:38;;;;;;;4.68;2.25;;;;;;;8.93;100.00;100038.69;5052933;28;20029;-66
2021/12/01 00:14:04;;;;;;;3.33;2.40;;;;;;;8.91;100.00;100036.25;5052941;28;20102;-66
2021/12/01 00:16:29;;;;;;;4.20;2.35;;;;;;;8.91;100.00;100027.47;5052511;28;20067;-67
2021/12/01 00:18:54;;;;;;;3.13;2.10;;;;;;;8.92;100.00;100021.09;5052943;28;20435;-66
2021/12/01 00:21:20;;;;;;;3.08;1.95;;;;;;;8.92;100.00;100013.94;5052963;28;20388;-66
2021/12/01 00:23:45;;;;;;;2.90;2.15;;;;;;;8.91;100.00;100009.66;5052897;28;20112;-66
2021/12/01 00:26:11;;;;;;;3.65;2.33;;;;;;;8.93;100.00;99980.19;5052769;28;20044;-66
2021/12/01 00:28:36;;;;;;;3.38;2.03;;;;;;;8.90;100.00;99986.72;5052292;28;20025;-67
2021/12/01 00:31:02;;;;;;;3.33;2.13;;;;;;;8.93;100.00;99973.03;5052804;28;20028;-66
2021/12/01 00:33:27;;;;;;;3.10;1.80;;;;;;;8.91;100.00;99966.31;5052889;28;20472;-66
2021/12/01 00:35:55;;;;;;;3.65;2.35;;;;;;;8.93;100.00;99958.91;5052563;28;20040;-66
2021/12/01 00:38:22;;;;;;;3.97;1.90;;;;;;;8.93;100.00;99951.78;5052753;28;20051;-66
2021/12/01 00:40:48;;;;;;;3.78;2.45;;;;;;;8.97;100.00;99939.69;5052907;28;20426;-66
2021/12/01 00:43:17;;;;;;;1.83;1.35;;;;;;;8.87;100.00;99923.34;5052765;28;20029;-66
2021/12/01 00:45:56;;;;;;;3.90;2.30;;;;;;;8.91;100.00;99926.41;5053012;28;20029;-66
2021/12/01 00:48:22;;;;;;;4.38;2.53;;;;;;;8.92;100.00;99934.16;5052751;28;20503;-66
2021/12/01 00:50:49;;;;;;;3.55;2.45;;;;;;;8.93;100.00;99925.19;5052806;28;20025;-66
2021/12/01 00:53:14;;;;;;;3.85;2.20;;;;;;;8.92;100.00;99925.38;5052714;28;20024;-66
2021/12/01 00:55:42;;;;;;;3.13;2.00;;;;;;;8.90;100.00;99920.25;5052722;28;20081;-66
2021/12/01 00:58:11;;;;;;;2.97;1.88;;;;;;;8.91;100.00;99924.56;5052536;28;20443;-66
2021/12/01 01:00:37;;;;;;;3.17;1.90;;;;;;;8.90;100.00;99916.78;5052501;28;20098;-66
2021/12/01 01:03:02;;;;;;;4.90;2.30;;;;;;;8.91;100.00;99913.13;5051879;28;20032;-67
2021/12/01 01:05:28;;;;;;;2.58;1.73;;;;;;;8.89;100.00;99908.00;5052458;28;20036;-66
2021/12/01 01:07:53;;;;;;;3.85;2.10;;;;;;;8.89;100.00;99907.19;5052221;28;20060;-66
2021/12/01 01:18:18;;;;;;;3.17;2.15;;;;;;;8.91;100.00;99879.34;5052495;28;20040;-66
2021/12/01 01:20:44;;;;;;;3.78;2.28;;;;;;;8.91;100.00;99876.69;5052373;28;20029;-66
2021/12/01 01:23:09;;;;;;;4.97;2.38;;;;;;;8.87;100.00;99885.28;5051200;28;20025;-66
2021/12/01 01:25:35;;;;;;;4.03;2.22;;;;;;;8.88;100.00;99865.66;5051865;28;20021;-66
2021/12/01 01:28:00;;;;;;;3.33;2.72;;;;;;;8.86;100.00;99854.44;5053295;28;20055;-66
2021/12/01 01:30:26;;;;;;;4.47;2.47;;;;;;;8.86;100.00;99865.06;5055456;28;20380;-66
2021/12/01 01:32:52;;;;;;;6.65;2.70;;;;;;;8.84;100.00;99862.59;5054862;28;20036;-66
2021/12/01 01:35:18;;;;;;;4.15;2.83;;;;;;;8.85;100.00;99858.91;5055995;28;20550;-66
2021/12/01 01:37:44;;;;;;;5.20;3.15;;;;;;;8.84;100.00;99838.66;5055811;28;20029;-66
2021/12/01 01:40:11;;;;;;;5.45;3.00;;;;;;;8.83;100.00;99836.22;5055961;28;20032;-66
2021/12/01 01:42:36;;;;;;;5.88;3.28;;;;;;;8.83;100.00;99833.53;5054687;28;20075;-66
2021/12/01 01:45:04;;;;;;;4.55;3.25;;;;;;;8.81;100.00;99839.09;5055860;28;20435;-66
2021/12/01 01:47:29;;;;;;;6.05;3.45;;;;;;;8.83;100.00;99839.72;5055806;28;20048;-67
2021/12/01 01:50:00;;;;;;;6.68;3.30;;;;;;;8.82;100.00;99832.75;5055740;28;20432;-66
2021/12/01 01:52:27;;;;;;;6.27;3.20;;;;;;;8.83;100.00;99838.88;5055826;28;20431;-66
2021/12/01 01:54:53;;;;;;;8.90;4.38;;;;;;;8.78;100.00;99829.69;5054372;28;20373;-66
2021/12/01 01:57:19;;;;;;;8.75;3.20;;;;;;;8.78;100.00;99823.56;5054332;28;20405;-67
2021/12/01 01:59:45;;;;;;;6.85;4.45;;;;;;;8.75;100.00;99816.81;5055508;28;20063;-66
2021/12/01 02:02:10;;;;;;;6.55;3.60;;;;;;;8.74;100.00;99811.72;5055390;28;20392;-67
2021/12/01 02:04:36;;;;;;;5.63;3.28;;;;;;;8.69;100.00;99807.00;5055431;28;20026;-66
2021/12/01 02:07:03;;;;;;;5.47;2.33;;;;;;;8.69;100.00;99777.78;5055445;28;20016;-66
2021/12/01 02:09:29;;;;;;;5.47;3.30;;;;;;;8.63;100.00;99783.13;5055310;28;20041;-67
2021/12/01 02:11:58;;;;;;;5.40;3.10;;;;;;;8.66;100.00;99766.75;5055372;28;20025;-66
2021/12/01 02:14:24;;;;;;;3.95;2.88;;;;;;;8.66;100.00;99777.41;5055249;28;20033;-66
2021/12/01 02:16:50;;;;;;;5.63;3.10;;;;;;;8.65;100.00;99765.13;5055221;28;20029;-66
2021/12/01 02:19:15;;;;;;;5.47;3.50;;;;;;;8.66;100.00;99753.47;5055061;28;20059;-66
2021/12/01 02:21:41;;;;;;;5.75;2.60;;;;;;;8.65;100.00;99762.47;5055168;28;20168;-66
2021/12/01 02:24:10;;;;;;;5.22;3.08;;;;;;;8.65;100.00;99757.16;5055111;28;20052;-66
2021/12/01 02:26:39;;;;;;;5.43;2.88;;;;;;;8.65;100.00;99746.53;5054993;28;20103;-66
2021/12/01 02:29:10;;;;;;;5.28;3.00;;;;;;;8.65;100.00;99726.09;5087295;28;20498;-66
2021/12/01 02:31:36;;;;;;;3.92;2.35;;;;;;;8.72;100.00;99726.03;5054498;28;20037;-65
2021/12/01 02:34:16;;;;;;;5.30;3.38;;;;;;;8.71;100.00;99721.75;5054636;28;20111;-66
2021/12/01 02:36:49;;;;;;;3.28;2.13;;;;;;;8.66;100.00;99717.06;5054257;28;20535;-66
2021/12/01 02:39:16;;;;;;;3.05;2.13;;;;;;;8.66;100.00;99714.41;5054364;28;20048;-66
2021/12/01 02:41:42;;;;;;;6.05;2.53;;;;;;;8.68;100.00;99714.22;5054876;28;20025;-66
2021/12/01 02:44:08;;;;;;;2.47;1.95;;;;;;;8.68;100.00;99695.59;5053433;28;20021;-67
2021/12/01 02:46:34;;;;;;;2.75;1.77;;;;;;;8.60;100.00;99664.78;5054737;28;20033;-66
2021/12/01 02:49:00;;;;;;;2.80;1.70;;;;;;;8.62;100.00;99678.66;5054631;28;20380;-67
2021/12/01 02:51:28;;;;;;;2.88;2.03;;;;;;;8.63;100.00;99682.13;5054602;28;20025;-66
2021/12/01 02:53:55;;;;;;;2.38;1.88;;;;;;;8.61;100.00;99670.91;5054533;28;20028;-66
2021/12/01 02:56:22;;;;;;;3.50;2.10;;;;;;;8.60;100.00;99670.09;5054554;28;20104;-67
2021/12/01 02:58:48;;;;;;;2.95;2.15;;;;;;;8.56;100.00;99663.56;5054518;28;20484;-66
2021/12/01 03:01:17;;;;;;;3.22;2.33;;;;;;;8.59;100.00;99649.84;5054287;28;20052;-66
2021/12/01 03:03:43;;;;;;;2.38;1.90;;;;;;;8.58;100.00;99656.19;5054404;28;20032;-67
2021/12/01 03:06:09;;;;;;;2.25;1.90;;;;;;;8.56;100.00;99660.91;5054430;28;20075;-66
2021/12/01 03:08:35;;;;;;;3.03;2.28;;;;;;;8.58;100.00;99637.59;5053956;28;20052;-66
2021/12/01 03:11:01;;;;;;;4.35;2.70;;;;;;;8.55;100.00;99638.81;5054258;28;20060;-66
2021/12/01 03:13:27;;;;;;;3.60;2.42;;;;;;;8.50;100.00;99614.72;5054017;28;20471;-67
2021/12/01 03:15:53;;;;;;;2.97;2.10;;;;;;;8.52;100.00;99622.50;5053766;28;20158;-66
2021/12/01 03:18:19;;;;;;;4.40;2.65;;;;;;;8.48;100.00;99629.25;5054067;28;20079;-66
2021/12/01 03:20:46;;;;;;;7.13;2.72;;;;;;;8.39;100.00;99603.97;5054095;28;20474;-66
2021/12/01 03:23:12;;;;;;;2.85;2.25;;;;;;;8.44;100.00;99617.44;5054194;28;20020;-66
2021/12/01 03:25:38;;;;;;;3.63;2.53;;;;;;;8.47;99.88;99617.81;5052807;28;20087;-66
2021/12/01 03:28:06;;;;;;;3.80;2.40;;;;;;;8.41;100.00;99601.91;5053879;28;20292;-66
2021/12/01 03:30:36;;;;;;;4.43;2.50;;;;;;;8.43;100.00;99599.84;5053834;28;20040;-66
2021/12/01 03:33:03;;;;;;;3.20;2.30;;;;;;;8.43;99.91;99586.56;5053690;28;20029;-66
2021/12/01 03:35:29;;;;;;;2.88;2.30;;;;;;;8.39;100.00;99572.91;5053198;28;20029;-66
2021/12/01 03:37:54;;;;;;;3.88;2.95;;;;;;;8.41;99.28;99573.53;5053571;28;20456;-66
2021/12/01 03:40:19;;;;;;;5.40;3.38;;;;;;;8.40;99.18;99573.72;5052136;28;20471;-66
2021/12/01 03:42:45;;;;;;;5.78;3.42;;;;;;;8.37;99.14;99552.88;5053649;28;20033;-66
2021/12/01 03:45:12;;;;;;;3.83;2.47;;;;;;;8.36;99.29;99568.00;5053584;28;20029;-66
2021/12/01 03:47:37;;;;;;;5.45;3.60;;;;;;;8.39;99.01;99567.59;5053508;28;20078;-66
2021/12/01 03:50:04;;;;;;;4.07;2.28;;;;;;;8.38;98.63;99541.19;5052972;28;20036;-66
2021/12/01 03:52:30;;;;;;;4.05;2.50;;;;;;;8.35;98.80;99537.94;5053216;28;20021;-67
2021/12/01 03:54:55;;;;;;;4.07;2.00;;;;;;;8.34;99.21;99535.50;5053427;28;20369;-67
2021/12/01 03:57:20;;;;;;;3.92;2.38;;;;;;;8.30;99.59;99534.31;5053364;28;20074;-66
2021/12/01 03:59:46;;;;;;;4.72;2.28;;;;;;;8.21;100.00;99523.13;5053471;28;20552;-66
2021/12/01 04:02:12;;;;;;;3.28;2.45;;;;;;;8.19;100.00;99525.19;5053403;28;20029;-66
2021/12/01 04:04:38;;;;;;;3.85;2.50;;;;;;;8.20;100.00;99518.03;5053312;28;20029;-66
2021/12/01 04:07:04;;;;;;;5.63;2.85;;;;;;;8.16;100.00;99509.69;5052897;28;20025;-66
2021/12/01 04:09:32;;;;;;;6.03;3.15;;;;;;;8.11;100.00;99488.25;5052688;28;20053;-67
2021/12/01 04:11:58;;;;;;;5.88;3.33;;;;;;;8.10;100.00;99478.69;5053112;28;20021;-66
2021/12/01 04:14:23;;;;;;;5.50;3.22;;;;;;;8.10;100.00;99476.81;5053199;28;20039;-67
2021/12/01 04:16:49;;;;;;;4.38;2.33;;;;;;;8.09;100.00;99461.91;5052637;28;20496;-66
2021/12/01 04:19:14;;;;;;;4.55;2.72;;;;;;;8.10;100.00;99470.72;5053076;28;20029;-67
2021/12/01 04:21:40;;;;;;;3.72;2.45;;;;;;;8.10;100.00;99460.91;5053007;28;20345;-66
2021/12/01 04:24:06;;;;;;;4.82;2.70;;;;;;;8.09;100.00;99464.56;5052971;28;20083;-66
2021/12/01 04:26:33;;;;;;;3.38;2.45;;;;;;;8.12;99.50;99458.84;5053005;28;20388;-66
2021/12/01 04:28:59;;;;;;;5.63;2.90;;;;;;;8.09;99.44;99453.94;5053108;28;20037;-66
2021/12/01 04:31:28;;;;;;;4.18;2.50;;;;;;;8.10;98.79;99450.28;5052850;28;20540;-66
2021/12/01 04:33:54;;;;;;;4.97;2.65;;;;;;;8.09;99.30;99438.00;5085224;28;20033;-66
2021/12/01 04:36:21;;;;;;;2.80;2.28;;;;;;;8.09;99.22;99437.19;5052424;28;20021;-66
2021/12/01 04:38:46;;;;;;;4.75;2.45;;;;;;;8.08;98.75;99428.44;5051343;28;20067;-66
2021/12/01 04:41:15;;;;;;;3.28;2.33;;;;;;;8.11;98.71;99405.94;5052603;28;20025;-66
2021/12/01 04:43:41;;;;;;;2.88;2.30;;;;;;;8.06;98.70;99393.31;5052793;28;20028;-66
2021/12/01 04:46:06;;;;;;;2.88;2.20;;;;;;;8.04;98.42;99383.94;5051543;28;20040;-66
2021/12/01 04:48:32;;;;;;;3.97;2.47;;;;;;;8.04;97.97;99382.13;5052717;28;20376;-66
2021/12/01 04:50:59;;;;;;;3.30;2.40;;;;;;;8.04;98.22;99382.13;5052734;28;20064;-66
2021/12/01 04:53:25;;;;;;;4.80;2.70;;;;;;;8.05;97.99;99385.56;5052659;28;20021;-66
2021/12/01 04:55:52;;;;;;;6.82;2.60;;;;;;;8.06;97.94;99363.28;5052649;28;20029;-66
2021/12/01 04:58:19;;;;;;;4.72;2.28;;;;;;;8.04;97.59;99354.72;5052688;28;20345;-66
2021/12/01 05:00:44;;;;;;;5.00;2.40;;;;;;;8.03;97.92;99366.38;5052551;28;20040;-66
2021/12/01 05:03:10;;;;;;;2.97;2.45;;;;;;;8.01;98.40;99363.13;5055426;28;20039;-66
2021/12/01 05:05:35;;;;;;;6.30;3.42;;;;;;;8.00;98.52;99350.91;5056696;28;20033;-66
2021/12/01 05:08:01;;;;;;;5.47;2.28;;;;;;;7.94;98.67;99341.13;5056310;28;20369;-66
2021/12/01 05:10:26;;;;;;;4.05;2.20;;;;;;;7.87;99.02;99335.88;5056508;28;20431;-66
2021/12/01 05:12:51;;;;;;;3.47;2.13;;;;;;;7.82;99.67;99333.06;5056467;28;20033;-66
2021/12/01 05:15:17;;;;;;;3.20;2.72;;;;;;;7.74;100.00;99331.47;5056172;28;20029;-66
2021/12/01 05:17:42;;;;;;;3.03;1.95;;;;;;;7.72;100.00;99330.06;5056190;28;20033;-66
2021/12/01 05:20:08;;;;;;;5.80;2.78;;;;;;;7.62;100.00;99331.38;5056378;28;20365;-67
2021/12/01 05:22:34;;;;;;;2.85;2.05;;;;;;;7.62;100.00;99315.47;5056297;28;20037;-66
2021/12/01 05:25:00;;;;;;;3.67;2.22;;;;;;;7.59;100.00;99325.66;5056287;28;20029;-66
2021/12/01 05:27:26;;;;;;;5.47;2.40;;;;;;;7.63;100.00;99321.56;5056251;28;20025;-66
2021/12/01 05:29:51;;;;;;;2.53;2.03;;;;;;;7.58;100.00;99308.94;5056263;28;20029;-66
2021/12/01 05:32:17;;;;;;;2.88;2.30;;;;;;;7.53;100.00;99300.81;5056032;28;20037;-66
2021/12/01 05:34:43;;;;;;;4.25;3.13;;;;;;;7.52;100.00;99308.97;5056033;28;20432;-67
2021/12/01 05:37:09;;;;;;;4.35;2.83;;;;;;;7.45;100.00;99303.72;5055754;28;20060;-66
2021/12/01 05:39:34;;;;;;;3.33;2.33;;;;;;;7.43;100.00;99297.81;5055927;28;20500;-66
2021/12/01 05:42:00;;;;;;;6.53;2.67;;;;;;;7.43;100.00;99301.28;5055433;28;20040;-66
2021/12/01 05:44:26;;;;;;;5.72;3.08;;;;;;;7.38;100.00;99285.19;5055429;28;20029;-66
2021/12/01 05:46:52;;;;;;;2.50;2.20;;;;;;;7.39;100.00;99283.38;5055972;28;20045;-66
2021/12/01 05:49:18;;;;;;;4.95;2.70;;;;;;;7.34;100.00;99273.41;5071322;28;20083;-66
2021/12/01 05:51:44;;;;;;;3.47;2.50;;;;;;;7.35;100.00;99268.91;5055690;28;20040;-66
2021/12/01 05:54:11;;;;;;;4.63;3.35;;;;;;;7.35;100.00;99260.94;5055278;28;20112;-66
2021/12/01 05:56:36;;;;;;;4.15;2.75;;;;;;;7.29;100.00;99254.66;5055155;28;20396;-66
2021/12/01 05:59:02;;;;;;;2.88;2.28;;;;;;;7.27;100.00;99250.59;5055549;28;20033;-66
2021/12/01 06:01:27;;;;;;;4.22;2.22;;;;;;;7.26;100.00;99247.16;5055706;28;20086;-66
2021/12/01 06:03:53;;;;;;;3.00;2.33;;;;;;;7.20;100.00;99218.81;5055648;28;20541;-66
2021/12/01 06:06:18;;;;;;;5.47;2.92;;;;;;;7.20;100.00;99219.66;5055475;28;20083;-66
2021/12/01 06:08:44;;;;;;;2.83;2.10;;;;;;;7.27;100.00;99234.69;5055237;28;20083;-66
2021/12/01 06:11:09;;;;;;;2.58;2.03;;;;;;;7.25;100.00;99222.44;5055430;28;20120;-66
2021/12/01 06:13:35;;;;;;;4.05;1.85;;;;;;;7.25;100.00;99217.16;5054486;28;20033;-66
2021/12/01 06:16:01;;;;;;;2.67;1.83;;;;;;;7.24;100.00;99204.13;5055247;28;20025;-66
2021/12/01 06:18:29;;;;;;;3.60;2.38;;;;;;;7.22;100.00;99211.47;5054877;28;20489;-66
2021/12/01 06:20:55;;;;;;;2.30;2.10;;;;;;;7.23;100.00;99194.53;5055110;28;20029;-67
2021/12/01 06:23:21;;;;;;;1.70;1.60;;;;;;;7.24;100.00;99183.72;5055174;28;20396;-66
2021/12/01 06:25:46;;;;;;;1.73;1.20;;;;;;;7.23;100.00;99190.06;5055120;28;20056;-66
2021/12/01 06:28:12;;;;;;;2.03;1.48;;;;;;;7.25;100.00;99185.31;5054947;28;20025;-66
2021/12/01 06:30:38;;;;;;;2.03;1.77;;;;;;;7.27;100.00;99177.16;5055277;28;20033;-66
2021/12/01 06:33:04;;;;;;;1.52;1.20;;;;;;;7.26;100.00;99180.84;5054805;28;20036;-66
2021/12/01 06:35:30;;;;;;;2.22;1.58;;;;;;;7.27;100.00;99181.66;5054784;28;20025;-66
2021/12/01 06:37:56;;;;;;;1.35;1.15;;;;;;;7.31;100.00;99178.38;5054732;28;20491;-67
2021/12/01 06:40:23;;;;;;;1.23;1.00;;;;;;;7.35;100.00;99184.03;5054405;28;20025;-66
2021/12/01 06:42:49;;;;;;;1.73;1.50;;;;;;;7.37;100.00;99171.38;5054182;28;20369;-66
2021/12/01 06:45:16;;;;;;;1.40;1.30;;;;;;;7.36;100.00;99153.84;5054714;28;20021;-66
2021/12/01 06:47:43;;;;;;;3.88;1.25;;;;;;;7.37;100.00;99153.63;5054590;28;20384;-66
2021/12/01 06:50:10;;;;;;;1.30;1.20;;;;;;;7.43;100.00;99160.69;5054595;28;20080;-66
2021/12/01 06:52:38;;;;;;;3.53;1.55;;;;;;;7.44;100.00;99146.44;5054590;28;20099;-66
2021/12/01 06:55:05;;;;;;;2.60;1.20;;;;;;;7.43;100.00;99139.47;5053441;28;20036;-66
2021/12/01 06:57:32;;;;;;;0.80;0.80;;;;;;;7.46;100.00;99144.34;5054382;28;20397;-66
2021/12/01 06:59:58;;;;;;;2.33;1.17;;;;;;;7.46;100.00;99157.59;5054424;28;20057;-66
2021/12/01 07:02:24;;;;;;;3.25;1.85;;;;;;;7.47;100.00;99127.41;5054247;28;20392;-66
2021/12/01 07:04:49;;;;;;;1.90;1.23;;;;;;;7.49;100.00;99129.03;5054367;28;20037;-66
2021/12/01 07:07:15;;;;;;;1.80;1.40;;;;;;;7.52;100.00;99117.97;5054250;28;20025;-65
2021/12/01 07:09:41;;;;;;;2.13;1.17;;;;;;;7.50;100.00;99120.06;5053990;28;20522;-66
2021/12/01 07:12:07;;;;;;;1.75;1.30;;;;;;;7.50;100.00;99126.16;5053668;28;20032;-66
2021/12/01 07:14:33;;;;;;;1.45;1.35;;;;;;;7.53;100.00;99127.56;5054125;28;20028;-65
2021/12/01 07:16:58;;;;;;;2.15;1.27;;;;;;;7.53;100.00;99116.97;5054019;28;20079;-66
2021/12/01 07:19:24;;;;;;;1.80;1.45;;;;;;;7.55;100.00;99126.31;5054093;28;20033;-65
2021/12/01 07:21:49;;;;;;;3.22;1.90;;;;;;;7.51;100.00;99111.88;5054049;28;20029;-66
2021/12/01 07:24:16;;;;;;;3.30;1.88;;;;;;;7.54;100.00;99118.56;5054068;28;20037;-65
2021/12/01 07:26:42;;;;;;;2.47;1.40;;;;;;;7.53;100.00;99112.47;5052878;28;20029;-66
2021/12/01 07:29:07;;;;;;;2.33;1.45;;;;;;;7.56;100.00;99116.53;5053870;28;20021;-65
2021/12/01 07:31:33;;;;;;;3.75;2.05;;;;;;;7.57;100.00;99116.31;5033803;28;20412;-65
2021/12/01 07:33:58;;;;;;;3.05;2.08;;;;;;;7.58;100.00;99120.56;5030347;28;20034;-65
2021/12/01 07:36:23;;;;;;;1.88;1.50;;;;;;;7.59;100.00;99116.06;5029674;28;20112;-65
2021/12/01 07:38:50;;;;;;;2.22;1.77;;;;;;;7.61;100.00;99108.72;5030649;28;20111;-66
2021/12/01 07:41:17;;;;;;;3.55;2.17;;;;;;;7.60;100.00;99110.56;5030289;28;20380;-65
2021/12/01 07:43:42;;;;;;;3.25;1.90;;;;;;;7.57;100.00;99097.75;5030491;28;20031;-65
2021/12/01 07:46:08;;;;;;;4.45;2.08;;;;;;;7.64;100.00;99101.13;5030555;28;20033;-66
2021/12/01 07:48:33;;;;;;;4.75;2.67;;;;;;;7.62;100.00;99097.91;5030747;28;20041;-65
2021/12/01 07:50:59;;;;;;;3.30;2.05;;;;;;;7.63;100.00;99098.69;5045740;28;20033;-66
2021/12/01 07:53:24;;;;;;;3.67;2.20;;;;;;;7.66;100.00;99093.75;5030679;28;20473;-66
2021/12/01 07:55:50;;;;;;;5.28;2.13;;;;;;;7.68;100.00;99091.69;5030470;28;20065;-65
2021/12/01 07:58:15;;;;;;;2.60;2.08;;;;;;;7.73;100.00;99075.13;5030493;28;20481;-65
2021/12/01 08:00:41;;;;;;;4.78;3.08;;;;;;;7.78;100.00;99072.63;5030779;28;20461;-66
2021/12/01 08:03:06;;;;;;;3.50;2.10;;;;;;;7.84;100.00;99070.91;5030549;28;20034;-66
2021/12/01 08:05:32;;;;;;;3.75;2.30;;;;;;;7.85;100.00;99073.31;5030483;28;20030;-65
2021/12/01 08:07:58;;;;;;;3.67;2.50;;;;;;;7.88;100.00;99069.41;5030124;28;20031;-66
2021/12/01 08:10:24;;;;;;;3.30;2.35;;;;;;;7.88;100.00;99064.91;5030362;28;20034;-66
2021/12/01 08:12:50;;;;;;;5.03;2.55;;;;;;;7.94;100.00;99065.88;5030345;28;20029;-66
2021/12/01 08:15:16;;;;;;;3.90;2.03;;;;;;;7.98;100.00;99067.03;5047962;28;20037;-66
2021/12/01 08:17:41;;;;;;;3.60;2.17;;;;;;;7.98;100.00;99061.72;5033079;28;20030;-66
2021/12/01 08:20:07;;;;;;;2.92;1.80;;;;;;;8.02;100.00;99056.81;5033144;28;20060;-66
2021/12/01 08:22:33;;;;;;;4.18;2.50;;;;;;;8.01;100.00;99058.63;5032920;28;20060;-65
2021/12/01 08:24:58;;;;;;;5.28;2.35;;;;;;;8.05;100.00;99053.69;5033049;28;20100;-66
2021/12/01 08:27:25;;;;;;;3.13;2.15;;;;;;;8.06;100.00;99055.31;5033032;28;20025;-66
2021/12/01 08:29:51;;;;;;;3.97;2.67;;;;;;;8.05;100.00;99056.34;5032956;28;20039;-66
2021/12/01 08:32:16;;;;;;;5.32;2.63;;;;;;;8.08;100.00;99058.56;5032908;28;20108;-66
2021/12/01 08:34:44;;;;;;;3.15;2.45;;;;;;;8.09;100.00;99057.50;5032478;28;20021;-66
2021/12/01 08:37:10;;;;;;;4.55;2.90;;;;;;;8.08;100.00;99054.03;5032441;28;20037;-66
2021/12/01 08:39:36;;;;;;;4.82;2.83;;;;;;;8.05;100.00;99048.38;5032618;28;20108;-66
2021/12/01 08:42:01;;;;;;;4.45;2.75;;;;;;;8.05;100.00;99043.06;5032521;28;20536;-65
2021/12/01 08:44:27;;;;;;;9.80;2.83;;;;;;;8.03;100.00;99037.97;5032618;28;20116;-68
2021/12/01 08:46:52;;;;;;;7.05;2.80;;;;;;;8.08;100.00;99037.31;5032350;28;20071;-65
2021/12/01 08:49:18;;;;;;;3.95;2.72;;;;;;;8.10;100.00;99035.25;5032946;28;20036;-66
2021/12/01 08:51:43;;;;;;;5.53;3.20;;;;;;;8.16;100.00;99036.19;5032743;28;20026;-67
2021/12/01 08:54:13;;;;;;;3.47;2.40;;;;;;;8.23;100.00;99031.59;5032773;28;20091;-66
2021/12/01 08:56:39;;;;;;;4.78;2.72;;;;;;;8.29;100.00;99026.19;5032441;28;20049;-66
2021/12/01 08:59:05;;;;;;;4.03;2.63;;;;;;;8.37;100.00;99021.59;5032632;28;20029;-66
2021/12/01 09:01:30;;;;;;;3.80;2.60;;;;;;;8.40;100.00;99005.22;5033127;28;20500;-67
2021/12/01 09:03:55;;;;;;;6.45;2.47;;;;;;;8.53;100.00;99020.97;5032644;28;20030;-66
2021/12/01 09:06:21;;;;;;;3.50;2.28;;;;;;;8.60;100.00;99018.22;5032695;28;20083;-66
2021/12/01 09:08:46;;;;;;;3.97;2.45;;;;;;;8.64;100.00;99019.34;5032380;28;20060;-67
2021/12/01 09:11:11;;;;;;;3.75;2.08;;;;;;;8.71;100.00;99022.72;5031368;28;20025;-66
2021/12/01 09:13:37;;;;;;;4.45;2.13;;;;;;;8.70;100.00;99023.78;5032480;28;20025;-67
2021/12/01 09:16:03;;;;;;;3.35;2.58;;;;;;;8.66;100.00;99031.38;5032443;28;20029;-67
2021/12/01 09:18:29;;;;;;;4.70;2.30;;;;;;;8.63;100.00;99023.88;5031903;28;20477;-67
2021/12/01 09:20:56;;;;;;;3.58;2.38;;;;;;;8.60;100.00;99020.88;5032409;28;20091;-66
2021/12/01 09:23:21;;;;;;;4.20;1.60;;;;;;;8.55;100.00;99025.00;5032583;28;20035;-66
2021/12/01 09:25:47;;;;;;;2.50;2.05;;;;;;;8.55;100.00;99040.94;5032433;28;20025;-66
2021/12/01 09:28:16;;;;;;;2.25;1.67;;;;;;;8.53;100.00;99040.34;5032258;28;20124;-66
2021/12/01 09:30:42;;;;;;;4.68;1.85;;;;;;;8.53;100.00;99029.72;5032168;28;20029;-66
2021/12/01 09:33:08;;;;;;;2.78;2.17;;;;;;;8.46;100.00;99038.84;5031920;28;20029;-66
2021/12/01 09:35:33;;;;;;;4.80;2.72;;;;;;;8.44;100.00;99019.69;5032377;28;20030;-66
2021/12/01 09:37:58;;;;;;;2.70;2.10;;;;;;;8.41;100.00;99049.34;5032149;28;20477;-65
2021/12/01 09:40:24;;;;;;;3.75;2.08;;;;;;;8.39;100.00;99052.22;5032179;28;20477;-67
2021/12/01 09:42:52;;;;;;;4.45;2.30;;;;;;;8.36;100.00;99047.34;5032236;28;20064;-65
2021/12/01 09:45:20;;;;;;;2.97;2.17;;;;;;;8.34;100.00;99044.09;5031872;28;20448;-65
2021/12/01 09:47:47;;;;;;;2.15;1.75;;;;;;;8.28;100.00;99059.09;5032048;28;20021;-66
2021/12/01 09:50:13;;;;;;;4.78;2.42;;;;;;;8.29;100.00;99063.38;5034799;28;20036;-65
2021/12/01 09:52:38;;;;;;;6.35;2.58;;;;;;;8.27;100.00;99056.66;5034657;28;20026;-65
2021/12/01 09:55:06;;;;;;;7.38;3.22;;;;;;;8.27;100.00;99075.25;5035784;28;20033;-66
2021/12/01 09:57:32;;;;;;;4.70;3.10;;;;;;;8.22;100.00;99065.28;5035683;28;20035;-65
2021/12/01 09:59:58;;;;;;;3.80;1.75;;;;;;;8.13;100.00;99058.69;5035729;28;20494;-65
2021/12/01 10:02:25;;;;;;;4.28;1.85;;;;;;;8.00;100.00;99066.84;5035745;28;20037;-65
2021/12/01 10:04:51;;;;;;;4.78;2.20;;;;;;;7.90;100.00;99062.84;5035641;28;20029;-65
2021/12/01 10:07:29;;;;;;;6.57;3.22;;;;;;;7.88;100.00;99054.28;5035274;28;20028;-65
2021/12/01 10:09:58;;;;;;;5.07;2.50;;;;;;;7.95;100.00;99058.72;5035155;28;20049;-65
2021/12/01 10:12:25;;;;;;;4.15;2.55;;;;;;;7.95;99.81;99062.19;5035549;28;20069;-65
2021/12/01 10:14:51;;;;;;;6.70;1.80;;;;;;;8.04;98.93;99046.75;5035259;28;20026;-65
2021/12/01 10:17:32;;;;;;;5.50;1.45;;;;;;;8.12;98.69;99043.78;5035370;28;20045;-65
2021/12/01 10:20:30;;;;;;;4.32;1.30;;;;;;;8.19;98.19;99046.34;5035329;28;20382;-66
2021/12/01 10:23:12;;;;;;;8.18;1.77;;;;;;;8.17;97.25;99051.88;5023122;28;20037;-65
2021/12/01 10:25:38;;;;;;;5.80;1.05;;;;;;;8.16;97.17;99049.47;5034894;28;20034;-65
2021/12/01 10:28:04;;;;;;;6.13;1.90;;;;;;;8.18;96.89;99052.72;5035175;28;20388;-65
2021/12/01 10:30:39;;;;;;;10.68;1.95;;;;;;;8.28;97.17;99037.84;5035418;28;20531;-65
2021/12/01 10:33:09;;;;;;;2.70;1.17;;;;;;;8.37;96.78;99058.78;5035305;28;20064;-65
2021/12/01 10:35:36;;;;;;;7.22;1.63;;;;;;;8.40;96.98;99059.16;5035136;28;20025;-65
2021/12/01 10:38:02;;;;;;;9.35;1.42;;;;;;;8.46;94.92;99068.06;5034988;28;20033;-66
2021/12/01 10:40:28;;;;;;;7.63;1.30;;;;;;;8.37;95.70;99040.19;5034946;28;20379;-65
2021/12/01 10:42:53;;;;;;;4.72;1.67;;;;;;;8.46;94.27;99052.97;5034861;28;20037;-65
2021/12/01 10:45:21;;;;;;;7.05;1.75;;;;;;;8.47;93.92;99051.91;5034748;28;20099;-65
2021/12/01 10:47:48;;;;;;;5.55;2.08;;;;;;;8.54;94.99;99060.59;5033268;28;20025;-65
2021/12/01 10:50:18;;;;;;;6.10;2.05;;;;;;;8.65;92.87;99042.25;5034820;28;20048;-65
2021/12/01 10:52:51;;;;;;;4.72;1.63;;;;;;;8.89;93.05;99049.19;5034740;28;20075;-65
2021/12/01 10:55:19;;;;;;;3.40;1.17;;;;;;;9.03;91.84;99046.31;5034683;28;20049;-65
2021/12/01 10:57:48;;;;;;;2.50;0.95;;;;;;;8.95;91.21;99047.47;5034532;28;20040;-65
2021/12/01 11:00:19;;;;;;;6.28;1.20;;;;;;;8.82;90.17;99053.81;5034477;28;20034;-66
2021/12/01 11:02:45;;;;;;;5.45;1.33;;;;;;;8.75;88.98;99061.06;5034585;28;20028;-65
2021/12/01 11:05:25;;;;;;;2.13;0.80;;;;;;;8.65;88.22;99039.59;5040910;28;20111;-66
2021/12/01 11:07:50;;;;;;;1.40;0.60;;;;;;;8.60;87.82;99055.41;5049592;28;20476;-65
2021/12/01 11:10:21;;;;;;;1.75;0.60;;;;;;;8.51;87.72;99041.63;5050091;28;20021;-65
2021/12/01 11:12:58;;;;;;;2.23;0.70;;;;;;;8.41;87.46;99042.19;5050444;28;20028;-66
2021/12/01 11:15:37;;;;;;;3.75;0.95;;;;;;;8.34;87.87;99050.22;5050234;28;20435;-66
2021/12/01 11:18:06;;;;;;;5.90;0.93;;;;;;;8.30;88.70;99050.88;5050040;28;20104;-64
2021/12/01 11:20:31;;;;;;;2.42;0.90;;;;;;;8.35;89.09;99053.69;5049152;28;20017;-64
2021/12/01 11:23:07;;;;;;;4.18;0.82;;;;;;;8.41;88.69;99057.31;5049568;28;20028;-66
2021/12/01 11:25:36;;;;;;;7.70;2.20;;;;;;;8.37;89.15;99056.94;5049902;28;20354;-66
2021/12/01 11:28:02;;;;;;;4.03;1.73;;;;;;;8.37;89.74;99062.25;5050171;28;20370;-65
2021/12/01 11:30:27;;;;;;;1.50;0.95;;;;;;;8.40;87.96;99061.81;5049717;28;20042;-66
2021/12/01 11:32:53;;;;;;;5.88;1.75;;;;;;;8.40;88.80;99068.97;5049755;28;20029;-65
2021/12/01 11:35:18;;;;;;;9.07;1.60;;;;;;;8.43;88.83;99055.22;5051466;28;20033;-66
2021/12/01 11:37:44;;;;;;;1.95;0.93;;;;;;;8.35;88.52;99057.13;5053669;28;20447;-66
2021/12/01 11:40:10;;;;;;;4.15;1.50;;;;;;;8.37;88.51;99058.78;5053531;28;20098;-66